createdAt,value
2023-04-26T00:01:47.222Z,100.00
2023-04-26T00:04:15.576Z,100.00
2023-04-26T00:06:46.310Z,100.00
2023-04-26T00:09:14.483Z,100.00
2023-04-26T00:11:42.480Z,100.00
2023-04-26T00:14:11.463Z,100.00
2023-04-26T00:16:39.512Z,100.00
2023-04-26T00:19:10.375Z,100.00
2023-04-26T00:21:38.371Z,100.00
2023-04-26T00:24:06.801Z,100.00
2023-04-26T00:26:37.097Z,100.00
2023-04-26T00:29:05.596Z,100.00
2023-04-26T00:31:34.301Z,100.00
2023-04-26T00:34:02.477Z,100.00
2023-04-26T00:36:32.716Z,100.00
2023-04-26T00:39:00.789Z,100.00
2023-04-26T00:41:29.621Z,100.00
2023-04-26T00:43:57.687Z,100.00
2023-04-26T00:46:26.492Z,100.00
2023-04-26T00:48:54.876Z,100.00
2023-04-26T00:51:22.946Z,100.00
2023-04-26T00:53:52.480Z,100.00
2023-04-26T00:56:21.201Z,100.00
2023-04-26T00:58:49.238Z,100.00
2023-04-26T01:01:17.454Z,100.00
2023-04-26T01:03:46.956Z,100.00
2023-04-26T01:06:15.589Z,100.00
2023-04-26T01:08:43.707Z,100.00
2023-04-26T01:11:13.124Z,100.00
2023-04-26T01:13:42.844Z,100.00
2023-04-26T01:16:11.283Z,100.00
2023-04-26T01:18:43.002Z,100.00
2023-04-26T01:21:11.328Z,100.00
2023-04-26T01:23:40.936Z,100.00
2023-04-26T01:26:08.936Z,100.00
2023-04-26T01:28:37.019Z,100.00
2023-04-26T01:31:07.418Z,100.00
2023-04-26T01:33:35.447Z,100.00
2023-04-26T01:36:03.483Z,100.00
2023-04-26T01:38:31.526Z,100.00
2023-04-26T01:41:00.871Z,100.00
2023-04-26T01:43:28.831Z,100.00
2023-04-26T01:45:59.011Z,100.00
2023-04-26T01:48:30.724Z,100.00
2023-04-26T01:50:58.800Z,100.00
2023-04-26T01:53:26.821Z,100.00
2023-04-26T01:55:55.662Z,100.00
2023-04-26T01:58:25.092Z,100.00
2023-04-26T02:00:53.151Z,100.00
2023-04-26T02:03:21.399Z,100.00
2023-04-26T02:05:51.545Z,100.00
2023-04-26T02:08:19.518Z,100.00
2023-04-26T02:10:47.620Z,100.00
2023-04-26T02:13:15.726Z,100.00
2023-04-26T02:15:48.851Z,100.00
2023-04-26T02:18:17.007Z,100.00
2023-04-26T02:20:45.779Z,100.00
2023-04-26T02:23:13.944Z,100.00
2023-04-26T02:25:46.576Z,100.00
2023-04-26T02:28:14.641Z,100.00
2023-04-26T02:30:42.717Z,100.00
2023-04-26T02:33:14.393Z,100.00
2023-04-26T02:35:42.537Z,100.00
2023-04-26T02:38:12.097Z,100.00
2023-04-26T02:40:40.091Z,100.00
2023-04-26T02:43:10.178Z,100.00
2023-04-26T02:45:42.326Z,100.00
2023-04-26T02:48:13.751Z,100.00
2023-04-26T02:50:41.710Z,100.00
2023-04-26T02:53:10.379Z,100.00
2023-04-26T02:55:40.889Z,100.00
2023-04-26T02:58:09.719Z,100.00
2023-04-26T03:00:37.787Z,100.00
2023-04-26T03:03:05.881Z,100.00
2023-04-26T03:05:35.627Z,100.00
2023-04-26T03:08:03.718Z,100.00
2023-04-26T03:10:34.865Z,100.00
2023-04-26T03:13:07.254Z,100.00
2023-04-26T03:15:35.663Z,100.00
2023-04-26T03:18:03.851Z,100.00
2023-04-26T03:20:32.081Z,100.00
2023-04-26T03:23:03.966Z,100.00
2023-04-26T03:25:31.958Z,100.00
2023-04-26T03:27:59.956Z,100.00
2023-04-26T03:30:28.052Z,100.00
2023-04-26T03:32:56.254Z,100.00
2023-04-26T03:35:24.418Z,100.00
2023-04-26T03:37:53.511Z,100.00
2023-04-26T03:40:24.023Z,100.00
2023-04-26T03:42:52.144Z,100.00
2023-04-26T03:45:20.673Z,100.00
2023-04-26T03:47:48.692Z,100.00
2023-04-26T03:50:17.210Z,100.00
2023-04-26T03:52:45.653Z,100.00
2023-04-26T03:55:13.653Z,100.00
2023-04-26T03:57:43.876Z,100.00
2023-04-26T04:00:14.046Z,100.00
2023-04-26T04:02:45.258Z,100.00
2023-04-26T04:05:22.032Z,100.00
2023-04-26T04:07:53.172Z,100.00
2023-04-26T04:10:24.071Z,100.00
2023-04-26T04:12:54.051Z,100.00
2023-04-26T04:15:24.491Z,100.00
2023-04-26T04:17:55.817Z,100.00
2023-04-26T04:20:24.092Z,100.00
2023-04-26T04:22:54.315Z,100.00
2023-04-26T04:25:22.933Z,100.00
2023-04-26T04:27:53.331Z,100.00
2023-04-26T04:30:21.422Z,100.00
2023-04-26T04:32:50.133Z,100.00
2023-04-26T04:35:18.854Z,100.00
2023-04-26T04:37:49.273Z,100.00
2023-04-26T04:40:17.600Z,100.00
2023-04-26T04:42:48.222Z,100.00
2023-04-26T04:45:19.180Z,100.00
2023-04-26T04:47:47.563Z,100.00
2023-04-26T04:50:16.006Z,100.00
2023-04-26T04:52:44.476Z,100.00
2023-04-26T04:55:12.813Z,100.00
2023-04-26T04:57:42.983Z,100.00
2023-04-26T05:00:12.758Z,100.00
2023-04-26T05:02:50.267Z,100.00
2023-04-26T05:05:18.643Z,100.00
2023-04-26T05:07:46.861Z,100.00
2023-04-26T05:10:15.250Z,100.00
2023-04-26T05:12:46.469Z,100.00
2023-04-26T05:15:14.552Z,100.00
2023-04-26T05:17:42.976Z,100.00
2023-04-26T05:20:20.973Z,100.00
2023-04-26T05:22:49.714Z,100.00
2023-04-26T05:25:22.279Z,100.00
2023-04-26T05:27:54.274Z,100.00
2023-04-26T05:30:44.695Z,100.00
2023-04-26T05:33:41.855Z,100.00
2023-04-26T05:36:32.238Z,100.00
2023-04-26T05:39:00.257Z,100.00
2023-04-26T05:41:28.322Z,100.00
2023-04-26T05:43:58.803Z,100.00
2023-04-26T05:46:27.310Z,100.00
2023-04-26T05:48:56.426Z,100.00
2023-04-26T05:51:24.758Z,100.00
2023-04-26T05:53:54.616Z,100.00
2023-04-26T05:56:25.712Z,100.00
2023-04-26T05:58:54.136Z,100.00
2023-04-26T06:01:22.265Z,100.00
2023-04-26T06:03:51.951Z,100.00
2023-04-26T06:06:23.803Z,100.00
2023-04-26T06:08:51.873Z,100.00
2023-04-26T06:11:24.000Z,100.00
2023-04-26T06:13:52.352Z,100.00
2023-04-26T06:16:20.886Z,100.00
2023-04-26T06:18:49.385Z,100.00
2023-04-26T06:21:17.522Z,100.00
2023-04-26T06:23:46.625Z,100.00
2023-04-26T06:26:19.827Z,100.00
2023-04-26T06:28:49.307Z,100.00
2023-04-26T06:31:21.704Z,100.00
2023-04-26T06:33:50.685Z,100.00
2023-04-26T06:36:19.264Z,100.00
2023-04-26T06:38:47.687Z,100.00
2023-04-26T06:41:15.847Z,100.00
2023-04-26T06:43:44.040Z,100.00
2023-04-26T06:46:22.567Z,100.00
2023-04-26T06:48:55.160Z,100.00
2023-04-26T06:51:23.317Z,100.00
2023-04-26T06:53:53.859Z,100.00
2023-04-26T06:56:22.073Z,100.00
2023-04-26T06:59:00.040Z,100.00
2023-04-26T07:01:33.380Z,100.00
2023-04-26T07:04:03.293Z,100.00
2023-04-26T07:06:32.116Z,100.00
2023-04-26T07:09:01.189Z,100.00
2023-04-26T07:11:29.555Z,100.00
2023-04-26T07:13:59.904Z,100.00
2023-04-26T07:16:30.540Z,100.00
2023-04-26T07:19:01.083Z,100.00
2023-04-26T07:21:29.081Z,100.00
2023-04-26T07:23:58.040Z,100.00
2023-04-26T07:26:26.849Z,100.00
2023-04-26T07:28:55.139Z,100.00
2023-04-26T07:31:23.236Z,100.00
2023-04-26T07:33:53.018Z,100.00
2023-04-26T07:36:23.069Z,100.00
2023-04-26T07:38:52.741Z,100.00
2023-04-26T07:41:20.785Z,100.00
2023-04-26T07:43:52.217Z,100.00
2023-04-26T07:46:20.439Z,100.00
2023-04-26T07:48:48.556Z,100.00
2023-04-26T07:51:18.491Z,100.00
2023-04-26T07:53:46.556Z,100.00
2023-04-26T07:56:15.303Z,100.00
2023-04-26T07:58:43.420Z,100.00
2023-04-26T08:01:18.927Z,100.00
2023-04-26T08:03:48.925Z,100.00
2023-04-26T08:06:18.787Z,100.00
2023-04-26T08:08:50.408Z,100.00
2023-04-26T08:11:18.646Z,100.00
2023-04-26T08:13:46.748Z,100.00
2023-04-26T08:16:14.976Z,100.00
2023-04-26T08:18:46.080Z,100.00
2023-04-26T08:21:14.960Z,100.00
2023-04-26T08:23:44.583Z,100.00
2023-04-26T08:26:12.822Z,100.00
2023-04-26T08:28:41.073Z,100.00
2023-04-26T08:31:10.087Z,100.00
2023-04-26T08:33:38.329Z,100.00
2023-04-26T08:36:06.881Z,100.00
2023-04-26T08:38:35.370Z,100.00
2023-04-26T08:41:05.392Z,100.00
2023-04-26T08:43:34.702Z,100.00
2023-04-26T08:46:02.891Z,100.00
2023-04-26T08:48:35.306Z,100.00
2023-04-26T08:51:04.451Z,100.00
2023-04-26T08:53:35.690Z,100.00
2023-04-26T08:56:05.604Z,100.00
2023-04-26T08:58:35.977Z,100.00
2023-04-26T09:01:05.197Z,100.00
2023-04-26T09:03:34.325Z,100.00
2023-04-26T09:06:05.525Z,100.00
2023-04-26T09:08:36.542Z,100.00
2023-04-26T09:11:06.079Z,100.00
2023-04-26T09:13:34.134Z,100.00
2023-04-26T09:16:04.807Z,100.00
2023-04-26T09:18:34.078Z,100.00
2023-04-26T09:21:03.548Z,100.00
2023-04-26T09:23:31.700Z,100.00
2023-04-26T09:26:14.844Z,100.00
2023-04-26T09:28:46.413Z,100.00
2023-04-26T09:31:37.824Z,100.00
2023-04-26T09:34:05.948Z,100.00
2023-04-26T09:36:34.026Z,100.00
2023-04-26T09:39:02.105Z,100.00
2023-04-26T09:41:50.094Z,100.00
2023-04-26T09:44:26.062Z,100.00
2023-04-26T09:47:01.697Z,100.00
2023-04-26T09:49:32.823Z,100.00
2023-04-26T09:52:01.482Z,100.00
2023-04-26T09:54:38.904Z,100.00
2023-04-26T09:57:06.912Z,100.00
2023-04-26T09:59:47.034Z,100.00
2023-04-26T10:02:16.514Z,100.00
2023-04-26T10:04:49.032Z,100.00
2023-04-26T10:07:17.721Z,100.00
2023-04-26T10:09:46.636Z,100.00
2023-04-26T10:12:15.430Z,100.00
2023-04-26T10:14:44.171Z,100.00
2023-04-26T10:17:13.979Z,100.00
2023-04-26T10:19:45.032Z,100.00
2023-04-26T10:22:17.342Z,100.00
2023-04-26T10:24:45.768Z,100.00
2023-04-26T10:27:14.030Z,100.00
2023-04-26T10:30:00.933Z,100.00
2023-04-26T10:32:31.204Z,100.00
2023-04-26T10:35:12.073Z,100.00
2023-04-26T10:37:54.941Z,100.00
2023-04-26T10:40:27.308Z,100.00
2023-04-26T10:43:13.626Z,100.00
2023-04-26T10:45:42.732Z,100.00
2023-04-26T10:48:21.913Z,100.00
2023-04-26T10:51:05.560Z,100.00
2023-04-26T10:53:33.963Z,100.00
2023-04-26T10:56:02.003Z,100.00
2023-04-26T10:58:31.040Z,100.00
2023-04-26T11:01:06.247Z,100.00
2023-04-26T11:03:37.148Z,89.59
2023-04-26T11:06:07.200Z,82.13
2023-04-26T11:08:36.540Z,100.00
2023-04-26T11:11:09.949Z,100.00
2023-04-26T11:13:38.667Z,100.00
2023-04-26T11:16:09.535Z,100.00
2023-04-26T11:18:39.842Z,100.00
2023-04-26T11:21:08.041Z,100.00
2023-04-26T11:23:36.555Z,100.00
2023-04-26T11:26:05.599Z,84.79
2023-04-26T11:28:34.757Z,100.00
2023-04-26T11:31:03.052Z,100.00
2023-04-26T11:33:31.398Z,97.31
2023-04-26T11:36:00.967Z,100.00
2023-04-26T11:38:29.797Z,98.43
2023-04-26T11:40:58.542Z,100.00
2023-04-26T11:43:36.356Z,100.00
2023-04-26T11:46:05.221Z,99.11
2023-04-26T11:48:34.621Z,100.00
2023-04-26T11:51:04.854Z,100.00
2023-04-26T11:53:37.464Z,91.58
2023-04-26T11:56:17.832Z,100.00
2023-04-26T11:58:46.772Z,91.08
2023-04-26T12:01:21.108Z,100.00
2023-04-26T12:03:51.080Z,97.18
2023-04-26T12:06:20.703Z,100.00
2023-04-26T12:08:52.343Z,95.51
2023-04-26T12:11:20.542Z,100.00
2023-04-26T12:13:51.015Z,100.00
2023-04-26T12:16:26.167Z,100.00
2023-04-26T12:18:55.449Z,94.97
2023-04-26T12:21:26.887Z,99.10
2023-04-26T12:23:56.231Z,82.08
2023-04-26T12:26:40.764Z,100.00
2023-04-26T12:29:09.396Z,100.00
2023-04-26T12:31:40.123Z,100.00
2023-04-26T12:34:08.813Z,100.00
2023-04-26T12:36:38.327Z,82.89
2023-04-26T12:39:06.868Z,86.42
2023-04-26T12:41:37.259Z,78.39
2023-04-26T12:44:05.482Z,85.14
2023-04-26T12:46:33.494Z,83.35
2023-04-26T12:49:01.624Z,80.14
2023-04-26T12:51:29.936Z,91.78
2023-04-26T12:54:01.474Z,87.96
2023-04-26T12:56:30.262Z,94.81
2023-04-26T12:58:58.372Z,98.72
2023-04-26T13:01:26.966Z,82.11
2023-04-26T13:03:56.691Z,78.72
2023-04-26T13:06:25.030Z,99.85
2023-04-26T13:08:55.566Z,100.00
2023-04-26T13:11:25.010Z,85.29
2023-04-26T13:13:52.990Z,90.53
2023-04-26T13:16:21.133Z,100.00
2023-04-26T13:18:49.290Z,90.23
2023-04-26T13:21:17.576Z,100.00
2023-04-26T13:23:48.229Z,97.79
2023-04-26T13:26:18.021Z,97.33
2023-04-26T13:28:47.647Z,91.70
2023-04-26T13:31:17.455Z,91.29
2023-04-26T13:33:47.129Z,100.00
2023-04-26T13:36:15.786Z,100.00
2023-04-26T13:38:43.923Z,82.18
2023-04-26T13:41:12.279Z,88.04
2023-04-26T13:43:40.361Z,79.84
2023-04-26T13:46:09.824Z,85.35
2023-04-26T13:48:40.989Z,88.14
2023-04-26T13:51:09.171Z,100.00
2023-04-26T13:53:37.222Z,100.00
2023-04-26T13:56:05.752Z,100.00
2023-04-26T13:58:33.812Z,90.13
2023-04-26T14:01:01.939Z,97.76
2023-04-26T14:03:31.616Z,100.00
2023-04-26T14:05:59.804Z,88.34
2023-04-26T14:08:30.391Z,89.71
2023-04-26T14:10:58.385Z,86.27
2023-04-26T14:13:28.954Z,100.00
2023-04-26T14:15:56.952Z,100.00
2023-04-26T14:18:24.998Z,83.87
2023-04-26T14:20:54.377Z,91.72
2023-04-26T14:23:22.448Z,85.55
2023-04-26T14:25:52.841Z,100.00
2023-04-26T14:28:21.180Z,100.00
2023-04-26T14:30:49.274Z,100.00
2023-04-26T14:33:17.346Z,100.00
2023-04-26T14:35:45.557Z,95.64
2023-04-26T14:38:17.679Z,80.85
2023-04-26T14:40:46.389Z,100.00
2023-04-26T14:43:14.443Z,100.00
2023-04-26T14:45:44.818Z,100.00
2023-04-26T14:48:13.175Z,88.58
2023-04-26T14:50:41.704Z,88.59
2023-04-26T14:53:12.425Z,98.62
2023-04-26T14:55:44.408Z,92.83
2023-04-26T14:58:12.858Z,77.45
2023-04-26T15:00:40.925Z,87.93
2023-04-26T15:03:09.053Z,72.25
2023-04-26T15:05:37.293Z,76.55
2023-04-26T15:08:06.140Z,77.17
2023-04-26T15:10:34.234Z,71.39
2023-04-26T15:13:03.869Z,78.34
2023-04-26T15:15:32.080Z,74.37
2023-04-26T15:18:03.473Z,80.51
2023-04-26T15:20:33.857Z,88.68
2023-04-26T15:23:01.916Z,100.00
2023-04-26T15:25:29.911Z,91.45
2023-04-26T15:27:57.875Z,74.35
2023-04-26T15:30:27.407Z,76.02
2023-04-26T15:32:55.507Z,73.26
2023-04-26T15:35:24.839Z,100.00
2023-04-26T15:37:55.486Z,82.11
2023-04-26T15:40:24.471Z,88.64
2023-04-26T15:42:52.528Z,86.87
2023-04-26T15:45:20.649Z,78.80
2023-04-26T15:47:50.035Z,86.46
2023-04-26T15:50:20.641Z,86.92
2023-04-26T15:52:49.947Z,90.77
2023-04-26T15:55:17.948Z,87.36
2023-04-26T15:57:48.460Z,86.59
2023-04-26T16:00:17.020Z,88.09
2023-04-26T16:02:47.164Z,88.48
2023-04-26T16:05:16.938Z,89.35
2023-04-26T16:07:45.164Z,94.91
2023-04-26T16:10:13.494Z,98.59
2023-04-26T16:12:42.840Z,98.40
2023-04-26T16:15:11.161Z,90.18
2023-04-26T16:17:39.661Z,93.43
2023-04-26T16:20:08.340Z,100.00
2023-04-26T16:22:37.706Z,93.55
2023-04-26T16:25:06.843Z,94.62
2023-04-26T16:27:35.103Z,92.62
2023-04-26T16:30:03.903Z,100.00
2023-04-26T16:32:32.246Z,96.36
2023-04-26T16:35:00.807Z,100.00
2023-04-26T16:37:28.839Z,99.38
2023-04-26T16:39:58.321Z,100.00
2023-04-26T16:42:26.475Z,100.00
2023-04-26T16:44:55.595Z,100.00
2023-04-26T16:47:23.569Z,99.87
2023-04-26T16:49:53.701Z,100.00
2023-04-26T16:52:23.749Z,100.00
2023-04-26T16:54:51.780Z,100.00
2023-04-26T16:57:21.194Z,100.00
2023-04-26T16:59:51.377Z,100.00
2023-04-26T17:02:19.513Z,100.00
2023-04-26T17:04:47.977Z,100.00
2023-04-26T17:07:16.391Z,100.00
2023-04-26T17:09:44.396Z,100.00
2023-04-26T17:12:12.465Z,100.00
2023-04-26T17:14:42.286Z,100.00
2023-04-26T17:17:10.266Z,100.00
2023-04-26T17:19:40.721Z,100.00
2023-04-26T17:22:08.778Z,100.00
2023-04-26T17:24:37.008Z,100.00
2023-04-26T17:27:05.300Z,100.00
2023-04-26T17:29:35.687Z,100.00
2023-04-26T17:32:05.538Z,100.00
2023-04-26T17:34:38.772Z,100.00
2023-04-26T17:37:06.851Z,100.00
2023-04-26T17:39:34.857Z,100.00
2023-04-26T17:42:03.893Z,100.00
2023-04-26T17:44:31.995Z,100.00
2023-04-26T17:47:00.011Z,96.09
2023-04-26T17:49:29.720Z,95.03
2023-04-26T17:52:00.152Z,100.00
2023-04-26T17:54:30.540Z,100.00
2023-04-26T17:56:58.760Z,100.00
2023-04-26T17:59:27.181Z,100.00
2023-04-26T18:01:55.422Z,100.00
2023-04-26T18:04:23.944Z,100.00
2023-04-26T18:06:53.561Z,100.00
2023-04-26T18:09:21.650Z,100.00
2023-04-26T18:11:49.608Z,100.00
2023-04-26T18:14:18.030Z,100.00
2023-04-26T18:16:46.244Z,100.00
2023-04-26T18:19:14.292Z,100.00
2023-04-26T18:21:42.466Z,100.00
2023-04-26T18:24:14.064Z,100.00
2023-04-26T18:26:42.128Z,100.00
2023-04-26T18:29:12.351Z,100.00
2023-04-26T18:31:40.517Z,100.00
2023-04-26T18:34:10.351Z,100.00
2023-04-26T18:36:38.691Z,100.00
2023-04-26T18:39:06.706Z,100.00
2023-04-26T18:41:36.223Z,100.00
2023-04-26T18:44:13.125Z,100.00
2023-04-26T18:46:41.508Z,100.00
2023-04-26T18:49:10.036Z,100.00
2023-04-26T18:51:38.026Z,100.00
2023-04-26T18:54:06.297Z,100.00
2023-04-26T18:56:34.403Z,100.00
2023-04-26T18:59:03.968Z,100.00
2023-04-26T19:01:32.087Z,100.00
2023-04-26T19:04:00.832Z,100.00
2023-04-26T19:06:29.036Z,100.00
2023-04-26T19:08:57.188Z,100.00
2023-04-26T19:11:25.585Z,100.00
2023-04-26T19:13:56.480Z,100.00
2023-04-26T19:16:25.931Z,100.00
2023-04-26T19:18:58.150Z,100.00
2023-04-26T19:21:26.708Z,100.00
2023-04-26T19:23:54.701Z,100.00
2023-04-26T19:26:22.754Z,100.00
2023-04-26T19:28:52.942Z,100.00
2023-04-26T19:31:21.018Z,100.00
2023-04-26T19:33:50.464Z,100.00
2023-04-26T19:36:18.463Z,100.00
2023-04-26T19:38:48.431Z,100.00
2023-04-26T19:41:16.621Z,100.00
2023-04-26T19:43:44.695Z,100.00
2023-04-26T19:46:13.353Z,100.00
2023-04-26T19:48:44.131Z,100.00
2023-04-26T19:51:17.372Z,100.00
2023-04-26T19:53:47.290Z,100.00
2023-04-26T19:56:15.309Z,100.00
2023-04-26T19:58:43.444Z,100.00
2023-04-26T20:01:14.693Z,100.00
2023-04-26T20:03:42.859Z,100.00
2023-04-26T20:06:13.817Z,100.00
2023-04-26T20:08:43.505Z,100.00
2023-04-26T20:11:18.174Z,100.00
2023-04-26T20:13:49.068Z,100.00
2023-04-26T20:16:17.241Z,100.00
2023-04-26T20:18:45.372Z,100.00
2023-04-26T20:21:18.446Z,100.00
2023-04-26T20:23:49.045Z,100.00
2023-04-26T20:26:22.132Z,100.00
2023-04-26T20:28:53.205Z,100.00
2023-04-26T20:31:21.274Z,100.00
2023-04-26T20:33:49.427Z,100.00
2023-04-26T20:36:17.769Z,100.00
2023-04-26T20:38:46.108Z,100.00
2023-04-26T20:41:23.746Z,100.00
2023-04-26T20:43:58.065Z,100.00
2023-04-26T20:46:27.538Z,100.00
2023-04-26T20:48:55.647Z,100.00
2023-04-26T20:51:23.759Z,100.00
2023-04-26T20:53:51.755Z,100.00
2023-04-26T20:56:21.219Z,100.00
2023-04-26T20:58:49.283Z,100.00
2023-04-26T21:01:17.754Z,100.00
2023-04-26T21:03:46.157Z,100.00
2023-04-26T21:06:19.672Z,100.00
2023-04-26T21:08:51.525Z,100.00
2023-04-26T21:11:20.925Z,100.00
2023-04-26T21:13:49.390Z,100.00
2023-04-26T21:16:18.770Z,100.00
2023-04-26T21:18:47.376Z,100.00
2023-04-26T21:21:15.439Z,100.00
2023-04-26T21:23:43.450Z,100.00
2023-04-26T21:26:11.480Z,100.00
2023-04-26T21:28:52.721Z,100.00
2023-04-26T21:31:20.873Z,100.00
2023-04-26T21:33:49.027Z,100.00
2023-04-26T21:36:17.303Z,100.00
2023-04-26T21:38:45.818Z,100.00
2023-04-26T21:41:16.957Z,100.00
2023-04-26T21:43:46.360Z,100.00
2023-04-26T21:46:14.547Z,100.00
2023-04-26T21:48:42.857Z,100.00
2023-04-26T21:51:10.900Z,100.00
2023-04-26T21:53:38.986Z,100.00
2023-04-26T21:56:07.637Z,100.00
2023-04-26T21:58:35.736Z,100.00
2023-04-26T22:02:37.920Z,100.00
2023-04-26T22:05:06.666Z,100.00
2023-04-26T22:07:34.965Z,100.00
2023-04-26T22:10:03.207Z,100.00
2023-04-26T22:12:31.348Z,100.00
2023-04-26T22:14:59.439Z,100.00
2023-04-26T22:17:27.547Z,100.00
2023-04-26T22:19:56.856Z,100.00
2023-04-26T22:22:25.102Z,100.00
2023-04-26T22:24:53.199Z,100.00
2023-04-26T22:27:21.574Z,100.00
2023-04-26T22:29:49.624Z,100.00
2023-04-26T22:32:17.742Z,100.00
2023-04-26T22:34:45.782Z,100.00
2023-04-26T22:37:21.115Z,100.00
2023-04-26T22:39:49.851Z,100.00
2023-04-26T22:42:17.893Z,100.00
2023-04-26T22:44:46.636Z,100.00
2023-04-26T22:47:14.689Z,100.00
2023-04-26T22:49:42.741Z,100.00
2023-04-26T22:52:20.204Z,100.00
2023-04-26T22:54:53.617Z,100.00
2023-04-26T22:57:21.722Z,100.00
2023-04-26T22:59:49.783Z,100.00
2023-04-26T23:02:18.250Z,100.00
2023-04-26T23:04:47.065Z,100.00
2023-04-26T23:07:15.171Z,100.00
2023-04-26T23:09:43.363Z,100.00
2023-04-26T23:12:12.868Z,100.00
2023-04-26T23:14:41.252Z,100.00
2023-04-26T23:17:12.498Z,100.00
2023-04-26T23:19:40.509Z,100.00
2023-04-26T23:22:08.610Z,100.00
2023-04-26T23:24:36.596Z,100.00
2023-04-26T23:27:04.673Z,100.00
2023-04-26T23:29:34.158Z,100.00
2023-04-26T23:32:02.231Z,100.00
2023-04-26T23:34:30.249Z,100.00
2023-04-26T23:36:58.780Z,100.00
2023-04-26T23:39:35.869Z,100.00
2023-04-26T23:42:04.182Z,100.00
2023-04-26T23:44:32.364Z,100.00
2023-04-26T23:47:03.755Z,100.00
2023-04-26T23:49:31.797Z,100.00
2023-04-26T23:52:02.091Z,100.00
2023-04-26T23:54:32.448Z,100.00
2023-04-26T23:57:04.045Z,100.00
2023-04-26T23:59:32.074Z,100.00
